Time;durP1;ratioP1;P1;durP2;ratioP2;P2;SDS_P1;SDS_P2;PMS_P1;PMS_P2;Temp;Humidity;BMP_temperature;BMP_pressure;BME280_temperature;BME280_humidity;BME280_pressure;Samples;Min_cycle;Max_cycle;Signal;HPM_P1;HPM_P2
2021/05/31 00:00:08;;;;;;;3.30;3.00;;;17.20;70.80;;;;;;5113802;28;20051;-64
2021/05/31 00:02:34;;;;;;;3.33;2.88;;;17.20;70.90;;;;;;5120396;27;20122;-60
2021/05/31 00:05:00;;;;;;;3.47;3.17;;;17.20;70.90;;;;;;5114524;28;20139;-63
2021/05/31 00:07:26;;;;;;;3.55;2.97;;;17.20;70.90;;;;;;5114418;28;20120;-62
2021/05/31 00:09:55;;;;;;;3.33;2.95;;;17.30;71.00;;;;;;5114592;28;20452;-63
2021/05/31 00:12:22;;;;;;;3.30;3.00;;;17.20;70.90;;;;;;5114568;28;20449;-56
2021/05/31 00:14:48;;;;;;;3.42;3.08;;;17.10;70.90;;;;;;5114397;28;20494;-60
2021/05/31 00:17:14;;;;;;;3.10;2.80;;;17.20;70.90;;;;;;5132459;27;20043;-62
2021/05/31 00:19:40;;;;;;;3.33;3.03;;;17.20;70.90;;;;;;5118494;27;20068;-58
2021/05/31 00:22:06;;;;;;;3.28;2.97;;;17.20;70.90;;;;;;5117085;27;20117;-63
2021/05/31 00:24:32;;;;;;;3.08;2.78;;;17.20;70.90;;;;;;5131824;27;20047;-58
2021/05/31 00:26:58;;;;;;;3.90;3.08;;;17.20;70.90;;;;;;5115067;27;20510;-60
2021/05/31 00:29:25;;;;;;;3.72;3.42;;;17.20;70.90;;;;;;5114114;28;20043;-58
2021/05/31 00:31:53;;;;;;;3.58;3.28;;;17.30;71.00;;;;;;5116520;27;20055;-63
2021/05/31 00:34:18;;;;;;;4.00;3.10;;;17.20;71.00;;;;;;5133889;27;20031;-64
2021/05/31 00:36:44;;;;;;;3.72;3.35;;;17.20;71.00;;;;;;5133991;27;20050;-64
2021/05/31 00:39:10;;;;;;;3.60;3.30;;;17.20;71.00;;;;;;5132579;27;20068;-64
2021/05/31 00:41:36;;;;;;;3.50;3.20;;;17.20;71.00;;;;;;5127405;27;20122;-63
2021/05/31 00:44:03;;;;;;;3.88;3.45;;;17.20;71.00;;;;;;5114198;28;20051;-61
2021/05/31 00:46:29;;;;;;;3.80;3.30;;;17.20;71.00;;;;;;5114047;28;20074;-58
2021/05/31 00:48:55;;;;;;;4.15;3.20;;;17.20;71.00;;;;;;5115358;27;20479;-59
2021/05/31 00:51:21;;;;;;;4.07;3.67;;;17.20;71.00;;;;;;5113586;28;20115;-63
2021/05/31 00:53:47;;;;;;;3.80;3.40;;;17.20;71.00;;;;;;5113666;28;20050;-64
2021/05/31 00:56:13;;;;;;;3.90;3.50;;;17.20;71.10;;;;;;5113552;28;20092;-58
2021/05/31 00:58:39;;;;;;;4.90;3.60;;;17.20;71.00;;;;;;5128078;27;20049;-55
2021/05/31 01:01:06;;;;;;;4.13;3.50;;;17.20;71.00;;;;;;5133842;27;20051;-61
2021/05/31 01:03:33;;;;;;;3.65;3.28;;;17.20;71.00;;;;;;5131840;27;20062;-61
2021/05/31 01:06:03;;;;;;;3.67;3.30;;;17.20;71.00;;;;;;5133317;27;20034;-64
2021/05/31 01:08:35;;;;;;;3.58;3.28;;;17.10;71.00;;;;;;5132090;27;20061;-62
2021/05/31 01:11:14;;;;;;;3.90;3.55;;;17.10;71.00;;;;;;5133240;27;20118;-60
2021/05/31 01:13:48;;;;;;;3.70;3.25;;;17.20;71.10;;;;;;5133389;27;20066;-60
2021/05/31 01:16:33;;;;;;;4.83;3.33;;;17.10;71.00;;;;;;5114265;28;20474;-64
2021/05/31 01:19:03;;;;;;;3.78;3.47;;;17.10;71.10;;;;;;5113919;28;20320;-65
2021/05/31 01:22:02;;;;;;;3.65;3.28;;;17.10;71.10;;;;;;5111367;27;20090;-65
2021/05/31 01:24:49;;;;;;;3.70;3.40;;;17.10;71.10;;;;;;5112599;28;20048;-65
2021/05/31 01:27:20;;;;;;;3.60;3.30;;;17.10;71.20;;;;;;5118349;27;20128;-64
2021/05/31 01:29:52;;;;;;;3.65;3.35;;;17.10;71.10;;;;;;5113565;28;20044;-64
2021/05/31 01:32:22;;;;;;;3.58;3.28;;;17.10;71.10;;;;;;5132780;27;20050;-64
2021/05/31 01:34:51;;;;;;;4.25;3.72;;;17.10;71.10;;;;;;5113958;27;20384;-65
2021/05/31 01:37:22;;;;;;;5.13;3.90;;;17.10;71.10;;;;;;5133404;27;20043;-64
2021/05/31 01:39:52;;;;;;;4.20;3.80;;;17.10;71.10;;;;;;5117870;27;20043;-64
2021/05/31 01:42:20;;;;;;;3.95;3.53;;;17.10;71.10;;;;;;5114669;27;20036;-61
2021/05/31 01:44:47;;;;;;;4.03;3.63;;;17.10;71.10;;;;;;5114180;27;20096;-65
2021/05/31 01:47:14;;;;;;;4.25;3.45;;;17.10;71.10;;;;;;5133357;27;20082;-65
2021/05/31 01:49:44;;;;;;;4.53;3.72;;;17.10;71.10;;;;;;5132715;27;20047;-65
2021/05/31 01:52:12;;;;;;;3.78;3.47;;;17.10;71.20;;;;;;5131513;28;20074;-64
2021/05/31 01:54:38;;;;;;;4.35;3.90;;;17.10;71.10;;;;;;5132839;28;20075;-65
2021/05/31 01:57:06;;;;;;;4.20;3.78;;;17.10;71.10;;;;;;5133375;28;20047;-63
2021/05/31 01:59:33;;;;;;;4.22;3.78;;;17.00;71.10;;;;;;5117964;28;20106;-65
2021/05/31 02:02:00;;;;;;;3.58;3.28;;;16.90;71.10;;;;;;5112023;28;20375;-64
2021/05/31 02:04:27;;;;;;;4.47;3.30;;;17.10;71.20;;;;;;5132966;28;20047;-60
2021/05/31 02:06:53;;;;;;;4.00;3.70;;;17.10;71.20;;;;;;5092678;28;20138;-64
2021/05/31 02:09:20;;;;;;;4.35;3.55;;;17.10;71.80;;;;;;5107143;28;20054;-63
2021/05/31 02:12:04;;;;;;;4.85;3.55;;;17.10;71.20;;;;;;5118844;28;20059;-61
2021/05/31 02:15:01;;;;;;;4.03;3.55;;;17.10;71.20;;;;;;5104872;28;20551;-63
2021/05/31 02:18:04;;;;;;;5.15;4.10;;;17.10;71.20;;;;;;5133047;28;20494;-62
2021/05/31 02:20:31;;;;;;;3.92;3.63;;;17.10;71.20;;;;;;5132422;28;20082;-62
2021/05/31 02:22:58;;;;;;;4.07;3.22;;;17.10;71.20;;;;;;5123743;27;20031;-62
2021/05/31 02:25:26;;;;;;;4.43;3.80;;;17.10;71.20;;;;;;5123725;27;20047;-61
2021/05/31 02:27:53;;;;;;;4.13;3.60;;;17.00;71.20;;;;;;5136812;27;20135;-61
2021/05/31 02:30:20;;;;;;;3.55;3.25;;;17.10;71.20;;;;;;5135381;27;20050;-55
2021/05/31 02:32:56;;;;;;;4.05;3.65;;;17.00;71.20;;;;;;5122622;27;20398;-61
2021/05/31 02:35:23;;;;;;;4.00;3.60;;;17.00;71.20;;;;;;5127262;27;20563;-62
2021/05/31 02:37:49;;;;;;;3.88;3.47;;;17.00;71.20;;;;;;5116273;28;20093;-58
2021/05/31 02:40:17;;;;;;;3.70;3.25;;;17.00;71.20;;;;;;5117271;27;20108;-60
2021/05/31 02:42:55;;;;;;;4.55;3.88;;;17.00;71.10;;;;;;5122499;27;20216;-56
2021/05/31 02:45:24;;;;;;;4.95;3.95;;;17.00;71.20;;;;;;5133032;27;20778;-61
2021/05/31 02:47:50;;;;;;;3.97;3.67;;;17.00;71.20;;;;;;5116053;28;20050;-57
2021/05/31 02:50:16;;;;;;;4.32;3.92;;;17.00;71.20;;;;;;5116203;27;20096;-62
2021/05/31 02:52:43;;;;;;;3.80;3.40;;;17.00;71.20;;;;;;5127608;27;20035;-60
2021/05/31 02:55:16;;;;;;;4.07;3.67;;;17.00;71.20;;;;;;5116751;27;20519;-56
2021/05/31 02:57:42;;;;;;;5.55;4.18;;;17.10;71.30;;;;;;5123854;27;20039;-59
2021/05/31 03:00:13;;;;;;;4.30;3.70;;;16.90;71.20;;;;;;5136290;27;20043;-57
2021/05/31 03:02:40;;;;;;;4.53;3.88;;;17.00;71.20;;;;;;5127755;27;20048;-58
2021/05/31 03:05:08;;;;;;;4.20;3.80;;;17.00;71.30;;;;;;5121248;27;20431;-57
2021/05/31 03:07:34;;;;;;;4.28;3.88;;;17.00;71.20;;;;;;5135974;27;20097;-56
2021/05/31 03:10:08;;;;;;;4.13;3.72;;;17.00;71.30;;;;;;5126128;27;20100;-62
2021/05/31 03:12:35;;;;;;;4.30;3.90;;;17.00;71.30;;;;;;5135468;27;20402;-56
2021/05/31 03:15:01;;;;;;;4.55;4.15;;;17.10;71.30;;;;;;5128532;27;20088;-56
2021/05/31 03:17:26;;;;;;;4.00;3.60;;;17.00;71.30;;;;;;5115690;27;20040;-57
2021/05/31 03:19:52;;;;;;;5.72;4.65;;;17.00;71.30;;;;;;5114507;28;20400;-62
2021/05/31 03:22:18;;;;;;;4.47;3.92;;;17.00;71.30;;;;;;5121098;27;20544;-59
2021/05/31 03:24:44;;;;;;;4.30;3.90;;;17.00;71.30;;;;;;5134698;27;20043;-50
2021/05/31 03:27:10;;;;;;;4.65;3.88;;;17.00;71.30;;;;;;5132551;27;20043;-56
2021/05/31 03:29:35;;;;;;;4.88;4.28;;;17.00;71.30;;;;;;5134503;27;20047;-55
2021/05/31 03:32:02;;;;;;;5.13;4.63;;;17.00;71.30;;;;;;5132924;27;20070;-56
2021/05/31 03:34:27;;;;;;;4.30;3.90;;;17.00;71.30;;;;;;5101279;28;20445;-59
2021/05/31 03:36:53;;;;;;;4.90;4.05;;;17.00;71.40;;;;;;5115585;27;20035;-56
2021/05/31 03:39:19;;;;;;;5.13;3.80;;;17.00;71.30;;;;;;5114917;28;20081;-58
2021/05/31 03:41:45;;;;;;;5.07;4.43;;;17.00;71.30;;;;;;5114927;27;20043;-60
2021/05/31 03:44:11;;;;;;;5.97;4.65;;;17.00;71.40;;;;;;5115014;28;20043;-53
2021/05/31 03:46:37;;;;;;;5.40;4.47;;;17.00;71.40;;;;;;5116083;27;20510;-57
2021/05/31 03:49:03;;;;;;;6.43;4.25;;;17.00;71.30;;;;;;5132822;27;20397;-59
2021/05/31 03:51:29;;;;;;;5.38;4.40;;;17.00;71.30;;;;;;5122040;27;20075;-62
2021/05/31 03:53:55;;;;;;;4.55;3.83;;;16.90;71.30;;;;;;5114851;28;20130;-59
2021/05/31 03:56:20;;;;;;;5.97;4.28;;;16.90;71.40;;;;;;5126239;27;20694;-63
2021/05/31 03:58:48;;;;;;;6.07;4.57;;;17.00;71.40;;;;;;5133817;27;20118;-61
2021/05/31 04:01:16;;;;;;;6.10;5.20;;;17.00;71.40;;;;;;5135517;27;20137;-63
2021/05/31 04:03:43;;;;;;;5.47;4.40;;;16.90;72.00;;;;;;5117210;27;20056;-63
2021/05/31 04:11:38;;;;;;;5.63;4.43;;;16.90;71.30;;;;;;5114900;28;20059;-62
2021/05/31 04:14:09;;;;;;;6.50;4.70;;;16.90;71.30;;;;;;5094660;28;20040;-63
2021/05/31 04:16:36;;;;;;;5.35;4.85;;;16.90;71.40;;;;;;5094893;28;20044;-62
2021/05/31 04:19:04;;;;;;;6.45;4.20;;;16.90;71.40;;;;;;5114184;28;20044;-61
2021/05/31 04:21:31;;;;;;;6.03;4.88;;;16.90;71.40;;;;;;5114242;28;20495;-61
2021/05/31 04:23:57;;;;;;;6.03;5.10;;;16.90;71.40;;;;;;5113761;28;20039;-60
2021/05/31 04:26:23;;;;;;;5.95;5.18;;;16.90;71.40;;;;;;5114295;28;20039;-56
2021/05/31 04:28:49;;;;;;;6.47;4.93;;;17.00;71.40;;;;;;5113409;28;20483;-62
2021/05/31 04:31:15;;;;;;;7.18;5.32;;;16.90;71.40;;;;;;5113957;28;20051;-57
2021/05/31 04:33:41;;;;;;;6.53;4.85;;;16.90;71.40;;;;;;5113860;28;20185;-61
2021/05/31 04:36:13;;;;;;;6.18;5.15;;;16.90;71.40;;;;;;5113257;28;20134;-62
2021/05/31 04:38:39;;;;;;;6.30;4.80;;;16.90;71.40;;;;;;5113560;28;20126;-60
2021/05/31 04:41:05;;;;;;;6.57;5.30;;;16.90;71.40;;;;;;5102726;28;20047;-65
2021/05/31 04:43:31;;;;;;;5.80;4.78;;;16.90;71.40;;;;;;5113782;28;20127;-63
2021/05/31 04:45:57;;;;;;;5.50;4.90;;;16.90;71.40;;;;;;5113309;28;20051;-56
2021/05/31 04:48:23;;;;;;;7.10;4.93;;;16.80;71.40;;;;;;5113546;28;20593;-57
2021/05/31 04:50:56;;;;;;;6.38;4.90;;;16.90;71.40;;;;;;5112902;28;20047;-53
2021/05/31 04:53:23;;;;;;;6.80;5.30;;;16.90;71.40;;;;;;5113473;28;20055;-60
2021/05/31 04:55:48;;;;;;;6.38;5.28;;;16.90;71.40;;;;;;5095163;28;20104;-61
2021/05/31 04:58:14;;;;;;;6.30;5.70;;;16.90;71.40;;;;;;5113637;28;20130;-52
2021/05/31 05:00:42;;;;;;;6.78;5.22;;;16.90;71.40;;;;;;5113208;28;20403;-56
2021/05/31 05:03:07;;;;;;;6.63;5.35;;;16.90;71.40;;;;;;5112914;28;20051;-57
2021/05/31 05:05:34;;;;;;;6.78;5.50;;;16.90;71.40;;;;;;5112965;28;20054;-60
2021/05/31 05:08:00;;;;;;;8.82;6.45;;;16.90;71.40;;;;;;5113383;28;20130;-58
2021/05/31 05:10:27;;;;;;;7.28;6.05;;;16.90;71.40;;;;;;5112909;28;20047;-61
2021/05/31 05:12:53;;;;;;;7.00;5.30;;;16.90;71.40;;;;;;5113023;28;20108;-58
2021/05/31 05:15:21;;;;;;;5.88;4.90;;;16.90;71.40;;;;;;5113009;28;20043;-56
2021/05/31 05:17:48;;;;;;;6.97;6.00;;;16.90;71.40;;;;;;5112998;28;20566;-55
2021/05/31 05:20:15;;;;;;;7.13;5.32;;;16.90;71.40;;;;;;5113098;28;20150;-57
2021/05/31 05:22:42;;;;;;;6.35;4.75;;;16.90;71.40;;;;;;5111852;28;20035;-58
2021/05/31 05:25:08;;;;;;;7.45;5.35;;;16.80;71.40;;;;;;5112416;28;20109;-60
2021/05/31 05:27:35;;;;;;;6.80;5.28;;;16.90;71.40;;;;;;5113113;28;20420;-55
2021/05/31 05:30:01;;;;;;;5.90;5.28;;;16.90;71.40;;;;;;5112744;28;20415;-60
2021/05/31 05:32:26;;;;;;;6.60;5.43;;;16.90;71.40;;;;;;5112570;28;20047;-59
2021/05/31 05:34:57;;;;;;;7.65;5.68;;;16.90;71.40;;;;;;5112108;28;20511;-58
2021/05/31 05:37:31;;;;;;;6.38;5.35;;;16.90;71.40;;;;;;5112702;28;20040;-54
2021/05/31 05:47:48;;;;;;;7.38;5.50;;;16.90;71.40;;;;;;5112793;28;20039;-56
2021/05/31 05:50:19;;;;;;;6.65;5.50;;;16.90;71.40;;;;;;5112306;28;20052;-56
2021/05/31 05:52:45;;;;;;;6.55;4.90;;;16.90;71.40;;;;;;5112660;28;20534;-56
2021/05/31 05:55:12;;;;;;;7.03;5.70;;;16.90;71.40;;;;;;5112232;28;20039;-56
2021/05/31 05:57:39;;;;;;;7.30;5.20;;;16.90;71.50;;;;;;5111822;28;20424;-56
2021/05/31 06:00:12;;;;;;;7.22;5.65;;;16.90;71.50;;;;;;5112391;28;20048;-55
2021/05/31 06:02:38;;;;;;;6.63;5.00;;;16.90;71.50;;;;;;5120554;28;20051;-56
2021/05/31 06:05:04;;;;;;;7.75;5.07;;;16.90;71.50;;;;;;5131578;28;20039;-56
2021/05/31 06:07:32;;;;;;;6.85;5.70;;;16.90;71.50;;;;;;5121491;28;20100;-56
2021/05/31 06:09:59;;;;;;;7.75;5.57;;;16.90;71.50;;;;;;5122401;28;20047;-56
2021/05/31 06:12:24;;;;;;;7.57;5.60;;;16.90;71.50;;;;;;5113708;28;20068;-56
2021/05/31 06:14:50;;;;;;;6.05;5.07;;;16.90;71.50;;;;;;5132876;28;20051;-55
2021/05/31 06:17:16;;;;;;;6.40;5.45;;;16.90;71.50;;;;;;5113335;28;20067;-56
2021/05/31 06:19:41;;;;;;;6.45;5.53;;;16.90;71.50;;;;;;5133096;28;20055;-56
2021/05/31 06:22:07;;;;;;;6.35;5.57;;;16.90;71.50;;;;;;5119818;28;20043;-57
2021/05/31 06:24:33;;;;;;;5.95;5.15;;;16.90;71.50;;;;;;5112906;28;20128;-58
2021/05/31 06:26:59;;;;;;;7.53;5.47;;;16.90;71.50;;;;;;5113592;28;20039;-57
2021/05/31 06:29:26;;;;;;;6.90;5.10;;;16.90;71.50;;;;;;5114710;28;20043;-58
2021/05/31 06:31:52;;;;;;;6.53;5.32;;;16.90;71.50;;;;;;5124186;28;20044;-57
2021/05/31 06:34:18;;;;;;;6.60;5.60;;;16.90;71.50;;;;;;5112621;28;20039;-58
2021/05/31 06:36:45;;;;;;;6.80;5.53;;;16.90;71.50;;;;;;5112650;28;20065;-57
2021/05/31 06:39:15;;;;;;;6.63;5.30;;;16.90;71.50;;;;;;5112674;28;20100;-58
2021/05/31 06:41:41;;;;;;;7.70;5.47;;;16.90;71.50;;;;;;5112436;28;20433;-57
2021/05/31 06:44:07;;;;;;;7.60;5.57;;;16.90;71.50;;;;;;5112306;28;20065;-58
2021/05/31 06:46:33;;;;;;;6.60;5.47;;;16.90;71.50;;;;;;5112566;28;20040;-57
2021/05/31 06:49:00;;;;;;;6.18;5.13;;;16.90;71.50;;;;;;5112450;28;20075;-57
2021/05/31 06:51:29;;;;;;;8.00;5.95;;;16.90;71.50;;;;;;5112446;28;20446;-58
2021/05/31 06:53:55;;;;;;;6.88;5.43;;;16.90;71.50;;;;;;5112669;28;20124;-57
2021/05/31 06:56:23;;;;;;;7.43;5.47;;;16.90;71.50;;;;;;5093274;28;20504;-58
2021/05/31 06:58:51;;;;;;;6.45;5.40;;;16.90;71.50;;;;;;5112097;28;20088;-56
2021/05/31 07:01:19;;;;;;;7.07;5.57;;;16.80;71.50;;;;;;5112538;28;20048;-56
2021/05/31 07:03:45;;;;;;;7.18;5.25;;;16.90;71.50;;;;;;5127686;28;20383;-57
2021/05/31 07:06:11;;;;;;;6.50;5.22;;;16.90;71.50;;;;;;5132875;28;20047;-57
2021/05/31 07:08:37;;;;;;;7.32;5.85;;;16.80;71.50;;;;;;5132561;28;20043;-56
2021/05/31 07:11:10;;;;;;;7.13;5.30;;;16.90;71.50;;;;;;5135205;27;20050;-58
2021/05/31 07:13:36;;;;;;;8.25;6.00;;;16.90;71.50;;;;;;5136137;27;20108;-58
2021/05/31 07:16:07;;;;;;;6.85;5.50;;;16.90;71.50;;;;;;5136505;27;20436;-57
2021/05/31 07:18:33;;;;;;;6.70;5.38;;;16.90;71.50;;;;;;5136109;27;20047;-57
2021/05/31 07:21:02;;;;;;;6.47;5.70;;;16.90;71.50;;;;;;5136352;27;20078;-46
2021/05/31 07:23:28;;;;;;;25.58;16.17;;;16.90;71.50;;;;;;5131001;27;20120;-45
2021/05/31 07:25:54;;;;;;;23.98;14.00;;;16.80;71.40;;;;;;5122746;27;20052;-46
2021/05/31 07:28:20;;;;;;;24.90;14.45;;;16.80;71.60;;;;;;5115191;28;20051;-48
2021/05/31 07:30:46;;;;;;;29.48;15.85;;;16.80;71.70;;;;;;5134438;27;20035;-49
2021/05/31 07:33:14;;;;;;;24.25;15.32;;;16.70;71.60;;;;;;5135911;27;20122;-53
2021/05/31 07:35:41;;;;;;;25.30;16.90;;;16.80;71.80;;;;;;5135872;27;20461;-54
2021/05/31 07:38:07;;;;;;;25.48;15.75;;;16.80;71.80;;;;;;5135640;27;20095;-50
2021/05/31 07:40:38;;;;;;;28.08;15.77;;;16.80;71.80;;;;;;5135656;27;20047;-54
2021/05/31 07:43:04;;;;;;;25.40;16.23;;;16.80;71.80;;;;;;5131854;27;20043;-54
2021/05/31 07:45:30;;;;;;;26.42;16.45;;;16.80;71.80;;;;;;5114860;28;20048;-43
2021/05/31 07:47:55;;;;;;;28.15;16.50;;;16.70;71.80;;;;;;5115349;28;20467;-50
2021/05/31 07:50:21;;;;;;;28.27;17.23;;;16.70;71.80;;;;;;5114899;28;20055;-53
2021/05/31 07:52:47;;;;;;;27.85;16.05;;;16.70;71.80;;;;;;5114355;28;20054;-54
2021/05/31 07:55:15;;;;;;;26.17;17.75;;;16.70;71.80;;;;;;5114871;28;20119;-47
2021/05/31 07:57:43;;;;;;;30.27;17.60;;;16.70;71.80;;;;;;5114663;28;20442;-54
2021/05/31 08:00:12;;;;;;;28.10;16.92;;;16.80;71.90;;;;;;5114036;28;20123;-52
2021/05/31 08:02:41;;;;;;;35.53;21.48;;;16.80;71.90;;;;;;5119947;27;20059;-43
2021/05/31 08:05:07;;;;;;;32.67;20.10;;;16.80;72.00;;;;;;5125933;27;20039;-49
2021/05/31 08:07:33;;;;;;;32.10;19.60;;;16.80;72.00;;;;;;5114559;28;20119;-50
2021/05/31 08:10:00;;;;;;;37.78;21.77;;;16.70;72.30;;;;;;5114465;28;20044;-56
2021/05/31 08:12:25;;;;;;;34.90;21.33;;;17.00;73.20;;;;;;5114561;28;20054;-51
2021/05/31 08:14:51;;;;;;;29.63;20.35;;;17.60;73.50;;;;;;5114387;28;20145;-49
2021/05/31 08:17:17;;;;;;;36.15;22.00;;;18.60;73.00;;;;;;5114452;28;20050;-52
2021/05/31 08:19:43;;;;;;;37.95;21.30;;;19.50;71.20;;;;;;5114299;28;20096;-46
2021/05/31 08:22:08;;;;;;;32.25;20.10;;;20.50;70.30;;;;;;5113648;28;20067;-50
2021/05/31 08:24:35;;;;;;;28.10;18.98;;;21.60;69.20;;;;;;5114242;28;20104;-49
2021/05/31 08:27:02;;;;;;;28.02;18.42;;;22.40;65.90;;;;;;5114078;28;20052;-51
2021/05/31 08:29:27;;;;;;;30.10;18.83;;;22.50;63.60;;;;;;5114219;28;20078;-48
2021/05/31 08:31:53;;;;;;;27.05;17.95;;;22.30;62.20;;;;;;5114110;28;20071;-54
2021/05/31 08:34:19;;;;;;;23.80;15.93;;;22.00;61.50;;;;;;5114527;28;20184;-56
2021/05/31 08:36:46;;;;;;;22.77;15.52;;;22.10;62.30;;;;;;5114405;28;20051;-49
2021/05/31 08:39:13;;;;;;;31.00;16.00;;;22.70;61.10;;;;;;5114066;28;20403;-44
2021/05/31 08:41:39;;;;;;;28.67;16.80;;;22.50;60.00;;;;;;5114068;28;20510;-48
2021/05/31 08:44:05;;;;;;;25.35;15.60;;;22.10;59.70;;;;;;5113912;28;20118;-50
2021/05/31 08:46:33;;;;;;;24.55;15.63;;;21.70;59.90;;;;;;5113526;28;20047;-47
2021/05/31 08:48:59;;;;;;;24.98;15.73;;;21.40;60.20;;;;;;5113474;28;20396;-47
2021/05/31 08:51:25;;;;;;;20.35;14.93;;;21.10;60.60;;;;;;5113288;28;20043;-48
2021/05/31 08:53:51;;;;;;;27.02;15.75;;;20.80;60.80;;;;;;5113641;28;20043;-50
2021/05/31 08:56:17;;;;;;;23.55;15.27;;;20.60;61.20;;;;;;5113769;28;20044;-46
2021/05/31 08:58:45;;;;;;;21.02;15.15;;;20.30;61.60;;;;;;5113257;28;20136;-48
2021/05/31 09:01:10;;;;;;;20.38;15.00;;;20.10;62.00;;;;;;5113324;28;20714;-48
2021/05/31 09:03:37;;;;;;;19.67;14.20;;;19.90;62.30;;;;;;5122741;27;20485;-48
2021/05/31 09:06:04;;;;;;;21.40;14.35;;;19.70;62.70;;;;;;5113544;28;20043;-48
2021/05/31 09:08:31;;;;;;;22.60;14.55;;;19.60;63.10;;;;;;5113526;28;20044;-52
2021/05/31 09:11:02;;;;;;;18.85;13.75;;;19.40;63.40;;;;;;5113374;28;20050;-45
2021/05/31 09:13:37;;;;;;;17.45;13.50;;;19.30;63.90;;;;;;5113302;28;20492;-51
2021/05/31 09:16:13;;;;;;;17.70;13.27;;;19.20;64.20;;;;;;5113492;28;20063;-52
2021/05/31 09:19:00;;;;;;;16.80;13.40;;;19.00;64.40;;;;;;5112968;28;20118;-49
2021/05/31 09:21:38;;;;;;;18.92;12.82;;;18.90;64.80;;;;;;5112613;28;20124;-46
2021/05/31 09:24:10;;;;;;;18.48;13.40;;;18.80;65.10;;;;;;5113047;28;20055;-47
2021/05/31 09:26:50;;;;;;;17.73;12.15;;;18.70;65.30;;;;;;5113120;28;20055;-53
2021/05/31 09:29:17;;;;;;;17.92;12.27;;;18.70;65.60;;;;;;5113022;28;20127;-49
2021/05/31 09:31:42;;;;;;;20.20;13.23;;;18.60;65.80;;;;;;5112653;28;20047;-50
2021/05/31 09:34:11;;;;;;;18.20;12.60;;;18.50;66.00;;;;;;5111890;28;20399;-54
2021/05/31 09:36:58;;;;;;;15.68;11.88;;;18.40;66.20;;;;;;5112176;28;20047;-49
2021/05/31 09:39:43;;;;;;;16.95;11.73;;;18.50;66.40;;;;;;5112680;28;20044;-53
2021/05/31 09:42:12;;;;;;;24.13;15.68;;;18.40;66.60;;;;;;5112881;28;20074;-48
2021/05/31 09:44:40;;;;;;;26.48;16.98;;;18.40;67.10;;;;;;5112602;28;20032;-49
2021/05/31 09:47:05;;;;;;;24.63;16.05;;;18.50;67.40;;;;;;5112253;28;20493;-54
2021/05/31 09:49:34;;;;;;;20.88;15.85;;;18.60;67.40;;;;;;5111563;28;20055;-53
2021/05/31 09:52:02;;;;;;;25.80;16.38;;;18.70;67.40;;;;;;5112654;28;20047;-49
2021/05/31 09:54:32;;;;;;;18.92;14.18;;;18.90;67.40;;;;;;5112499;28;20452;-46
2021/05/31 09:57:00;;;;;;;19.95;13.85;;;19.00;67.20;;;;;;5112324;28;20425;-49
2021/05/31 09:59:30;;;;;;;22.65;14.07;;;19.20;66.80;;;;;;5112087;28;20067;-47
2021/05/31 10:02:01;;;;;;;16.60;13.25;;;19.40;66.40;;;;;;5112667;28;20051;-55
2021/05/31 10:05:26;;;;;;;25.48;14.60;;;19.50;66.10;;;;;;5129170;28;20133;-54
2021/05/31 10:07:54;;;;;;;23.15;14.65;;;19.60;65.90;;;;;;5128611;28;20047;-52
2021/05/31 10:10:06;;;;;;;22.52;14.45;;;19.70;65.90;;;;;;5129493;28;20079;-47
2021/05/31 10:12:33;;;;;;;16.40;13.35;;;19.70;65.70;;;;;;5133094;28;20070;-52
2021/05/31 10:15:00;;;;;;;20.15;12.55;;;19.70;65.60;;;;;;5133156;28;20047;-45
2021/05/31 10:17:26;;;;;;;21.40;13.50;;;19.70;65.60;;;;;;5133273;28;20423;-49
2021/05/31 10:19:51;;;;;;;15.45;12.65;;;19.60;65.60;;;;;;5132556;28;20072;-48
2021/05/31 10:22:19;;;;;;;15.00;12.63;;;19.60;65.60;;;;;;5133051;28;20426;-51
2021/05/31 10:24:45;;;;;;;16.52;12.45;;;19.50;65.60;;;;;;5132956;28;20049;-50
2021/05/31 10:27:14;;;;;;;16.17;12.07;;;19.50;65.60;;;;;;5132989;28;20441;-52
2021/05/31 10:29:42;;;;;;;18.90;12.23;;;19.50;65.70;;;;;;5133020;28;20047;-46
2021/05/31 10:32:09;;;;;;;15.32;11.50;;;19.40;65.80;;;;;;5133154;28;20047;-50
2021/05/31 10:34:51;;;;;;;13.98;11.80;;;19.40;65.80;;;;;;5132775;28;20494;-47
2021/05/31 10:37:23;;;;;;;17.50;12.25;;;19.40;65.90;;;;;;5133174;28;20046;-49
2021/05/31 10:40:11;;;;;;;14.07;10.60;;;19.30;66.00;;;;;;5133182;28;20047;-48
2021/05/31 10:42:58;;;;;;;16.75;11.63;;;19.30;66.00;;;;;;5123279;28;20047;-47
2021/05/31 10:45:24;;;;;;;14.98;10.73;;;19.30;66.10;;;;;;5114756;28;20048;-42
2021/05/31 10:48:11;;;;;;;14.20;10.68;;;19.20;66.90;;;;;;5115732;28;20126;-48
2021/05/31 10:50:51;;;;;;;12.82;10.90;;;19.20;66.20;;;;;;5124145;27;20066;-46
2021/05/31 10:53:28;;;;;;;14.57;10.45;;;19.20;66.30;;;;;;5134480;27;20046;-47
2021/05/31 10:56:09;;;;;;;13.52;10.27;;;19.20;66.30;;;;;;5115527;28;20047;-45
2021/05/31 10:58:35;;;;;;;13.20;9.35;;;19.20;66.40;;;;;;5115299;28;20039;-47
2021/05/31 11:01:04;;;;;;;13.23;10.00;;;19.10;66.40;;;;;;5123371;27;20062;-49
2021/05/31 11:03:31;;;;;;;11.13;9.20;;;19.10;66.50;;;;;;5135287;27;20128;-46
2021/05/31 11:05:57;;;;;;;11.40;9.50;;;19.10;66.60;;;;;;5135560;27;20075;-47
2021/05/31 11:08:33;;;;;;;11.75;9.02;;;19.10;66.60;;;;;;5135654;27;20462;-42
2021/05/31 11:11:03;;;;;;;11.68;9.65;;;19.10;66.60;;;;;;5104481;27;20503;-45
2021/05/31 11:13:29;;;;;;;9.48;8.40;;;19.10;66.60;;;;;;5135674;27;20047;-48
2021/05/31 11:16:06;;;;;;;10.32;9.07;;;19.10;66.70;;;;;;5107897;27;20040;-44
2021/05/31 11:18:45;;;;;;;10.70;9.13;;;19.10;66.70;;;;;;5110256;28;20048;-45
2021/05/31 11:21:23;;;;;;;10.45;8.55;;;19.10;66.80;;;;;;5114790;28;20051;-45
2021/05/31 11:23:59;;;;;;;9.40;8.32;;;19.10;66.80;;;;;;5115400;27;20048;-47
2021/05/31 11:26:30;;;;;;;11.32;8.40;;;19.10;66.80;;;;;;5114894;28;20190;-44
2021/05/31 11:28:56;;;;;;;8.75;7.60;;;19.10;66.90;;;;;;5114842;28;20055;-48
2021/05/31 11:31:23;;;;;;;8.20;7.38;;;19.10;66.90;;;;;;5115168;28;20039;-50
2021/05/31 11:33:53;;;;;;;8.80;7.25;;;19.10;66.90;;;;;;5128329;27;20039;-49
2021/05/31 11:36:40;;;;;;;9.98;8.25;;;19.10;67.60;;;;;;5134949;27;20043;-47
2021/05/31 11:39:18;;;;;;;8.70;7.60;;;19.10;66.90;;;;;;5135498;27;20051;-45
2021/05/31 11:41:47;;;;;;;9.88;7.63;;;19.10;67.00;;;;;;5135546;27;20047;-45
2021/05/31 11:44:34;;;;;;;9.55;7.20;;;19.10;67.00;;;;;;5133760;27;20433;-48
2021/05/31 11:47:02;;;;;;;8.80;7.50;;;19.10;67.00;;;;;;5135658;27;20143;-45
2021/05/31 11:49:29;;;;;;;8.40;7.18;;;19.10;67.00;;;;;;5135592;27;20047;-47
2021/05/31 11:52:00;;;;;;;8.35;7.50;;;19.10;67.10;;;;;;5134960;27;20099;-48
2021/05/31 11:54:32;;;;;;;8.30;7.13;;;19.10;67.10;;;;;;5133614;27;20093;-45
2021/05/31 11:57:14;;;;;;;8.18;7.10;;;19.10;67.10;;;;;;5119853;27;20071;-46
2021/05/31 11:59:42;;;;;;;7.63;6.68;;;19.10;67.20;;;;;;5114638;28;20047;-47
2021/05/31 12:02:10;;;;;;;9.70;6.60;;;19.10;67.10;;;;;;5114714;28;20044;-46
2021/05/31 12:04:37;;;;;;;8.07;6.30;;;19.10;66.60;;;;;;5116496;27;20449;-44
2021/05/31 12:07:07;;;;;;;13.35;6.70;;;19.40;65.60;;;;;;5114078;28;20044;-47
2021/05/31 12:09:42;;;;;;;12.98;6.40;;;19.60;64.30;;;;;;5111684;28;20044;-46
2021/05/31 12:12:09;;;;;;;10.05;7.38;;;19.90;63.00;;;;;;5114219;28;20048;-43
2021/05/31 12:14:53;;;;;;;13.13;7.70;;;20.10;62.70;;;;;;5114444;28;20040;-48
2021/05/31 12:17:20;;;;;;;9.98;7.20;;;20.10;62.50;;;;;;5134089;27;20051;-46
2021/05/31 12:19:49;;;;;;;11.32;7.10;;;20.10;62.70;;;;;;5134949;27;20058;-46
2021/05/31 12:22:17;;;;;;;9.57;6.80;;;20.00;62.70;;;;;;5134334;27;20051;-44
2021/05/31 12:24:49;;;;;;;8.98;6.20;;;20.00;62.90;;;;;;5134018;27;20233;-47
2021/05/31 12:27:22;;;;;;;7.82;5.95;;;19.90;63.00;;;;;;5134414;27;20050;-43
2021/05/31 12:29:47;;;;;;;8.85;6.30;;;19.90;63.20;;;;;;5134716;27;20123;-44
2021/05/31 12:32:19;;;;;;;11.23;6.80;;;19.90;63.40;;;;;;5134532;27;20071;-51
2021/05/31 12:34:45;;;;;;;8.95;6.13;;;19.80;63.60;;;;;;5134567;27;20051;-54
2021/05/31 12:37:14;;;;;;;8.77;6.15;;;19.80;63.70;;;;;;5134173;27;20483;-54
2021/05/31 12:39:48;;;;;;;8.40;6.10;;;19.80;63.90;;;;;;5134031;27;20039;-54
2021/05/31 12:42:26;;;;;;;8.15;5.95;;;19.70;64.00;;;;;;5134592;27;20039;-51
2021/05/31 12:44:58;;;;;;;8.90;5.82;;;19.70;64.10;;;;;;5134499;27;20078;-45
2021/05/31 12:47:32;;;;;;;6.75;5.50;;;19.70;64.30;;;;;;5133861;27;20529;-50
2021/05/31 12:49:59;;;;;;;8.90;6.05;;;19.70;64.40;;;;;;5134508;27;20768;-50
2021/05/31 12:52:29;;;;;;;8.32;5.65;;;19.60;64.50;;;;;;5134815;27;20099;-53
2021/05/31 12:54:59;;;;;;;6.75;5.22;;;19.60;64.60;;;;;;5133976;27;20036;-45
2021/05/31 12:57:40;;;;;;;7.32;5.00;;;19.60;64.70;;;;;;5133924;27;20039;-47
2021/05/31 13:00:10;;;;;;;6.25;5.10;;;19.60;64.80;;;;;;5119772;27;20456;-44
2021/05/31 13:02:41;;;;;;;6.13;5.13;;;19.60;64.80;;;;;;5132309;27;20066;-52